sensor_id;sensor_type;location;lat;lon;timestamp;P1;durP1;ratioP1;P2;durP2;ratioP2
67503;SDS011;54351;49.108;1.502;2022-07-29T00:01:00;169.95;;;161.10;;
67503;SDS011;54351;49.108;1.502;2022-07-29T00:03:26;175.13;;;165.80;;
67503;SDS011;54351;49.108;1.502;2022-07-29T00:05:52;172.52;;;163.15;;
67503;SDS011;54351;49.108;1.502;2022-07-29T00:08:18;151.82;;;143.65;;
67503;SDS011;54351;49.108;1.502;2022-07-29T00:10:44;150.73;;;142.80;;
67503;SDS011;54351;49.108;1.502;2022-07-29T00:13:11;136.10;;;128.60;;
67503;SDS011;54351;49.108;1.502;2022-07-29T00:15:37;136.85;;;129.40;;
67503;SDS011;54351;49.108;1.502;2022-07-29T00:18:03;127.38;;;120.47;;
67503;SDS011;54351;49.108;1.502;2022-07-29T00:20:29;131.93;;;124.63;;
67503;SDS011;54351;49.108;1.502;2022-07-29T00:22:55;131.82;;;124.70;;
67503;SDS011;54351;49.108;1.502;2022-07-29T00:25:21;125.18;;;118.45;;
67503;SDS011;54351;49.108;1.502;2022-07-29T00:27:47;118.10;;;111.78;;
67503;SDS011;54351;49.108;1.502;2022-07-29T00:30:13;111.95;;;105.97;;
67503;SDS011;54351;49.108;1.502;2022-07-29T00:32:40;58.47;;;55.42;;
67503;SDS011;54351;49.108;1.502;2022-07-29T00:35:06;63.65;;;60.17;;
67503;SDS011;54351;49.108;1.502;2022-07-29T00:37:51;64.18;;;60.50;;
67503;SDS011;54351;49.108;1.502;2022-07-29T00:40:17;57.00;;;53.83;;
67503;SDS011;54351;49.108;1.502;2022-07-29T00:42:47;25.23;;;23.75;;
67503;SDS011;54351;49.108;1.502;2022-07-29T00:45:14;13.63;;;12.50;;
67503;SDS011;54351;49.108;1.502;2022-07-29T00:47:40;15.30;;;14.20;;
67503;SDS011;54351;49.108;1.502;2022-07-29T00:50:07;14.27;;;13.20;;
67503;SDS011;54351;49.108;1.502;2022-07-29T00:52:34;43.17;;;40.83;;
67503;SDS011;54351;49.108;1.502;2022-07-29T00:55:02;50.20;;;47.25;;
67503;SDS011;54351;49.108;1.502;2022-07-29T00:57:29;39.05;;;36.97;;
67503;SDS011;54351;49.108;1.502;2022-07-29T00:59:55;27.10;;;25.35;;
67503;SDS011;54351;49.108;1.502;2022-07-29T01:02:21;25.23;;;23.83;;
67503;SDS011;54351;49.108;1.502;2022-07-29T01:04:47;20.30;;;18.98;;
67503;SDS011;54351;49.108;1.502;2022-07-29T01:07:13;16.23;;;14.85;;
67503;SDS011;54351;49.108;1.502;2022-07-29T01:09:40;12.70;;;11.85;;
67503;SDS011;54351;49.108;1.502;2022-07-29T01:12:06;15.40;;;14.43;;
67503;SDS011;54351;49.108;1.502;2022-07-29T01:14:33;12.68;;;11.65;;
67503;SDS011;54351;49.108;1.502;2022-07-29T01:17:01;10.43;;;9.55;;
67503;SDS011;54351;49.108;1.502;2022-07-29T01:21:57;8.15;;;6.57;;
67503;SDS011;54351;49.108;1.502;2022-07-29T01:31:55;4.82;;;4.13;;
67503;SDS011;54351;49.108;1.502;2022-07-29T01:34:23;12.98;;;12.10;;
67503;SDS011;54351;49.108;1.502;2022-07-29T01:37:26;4.25;;;3.85;;
67503;SDS011;54351;49.108;1.502;2022-07-29T01:39:42;5.28;;;4.20;;
67503;SDS011;54351;49.108;1.502;2022-07-29T01:44:50;6.60;;;3.72;;
67503;SDS011;54351;49.108;1.502;2022-07-29T01:47:19;3.40;;;3.10;;
67503;SDS011;54351;49.108;1.502;2022-07-29T01:49:47;4.78;;;3.33;;
67503;SDS011;54351;49.108;1.502;2022-07-29T01:52:19;3.45;;;3.15;;
67503;SDS011;54351;49.108;1.502;2022-07-29T01:54:49;7.55;;;3.58;;
67503;SDS011;54351;49.108;1.502;2022-07-29T01:57:16;3.28;;;2.97;;
67503;SDS011;54351;49.108;1.502;2022-07-29T01:59:45;7.43;;;4.80;;
67503;SDS011;54351;49.108;1.502;2022-07-29T02:02:12;4.53;;;4.13;;
67503;SDS011;54351;49.108;1.502;2022-07-29T02:04:39;4.75;;;3.65;;
67503;SDS011;54351;49.108;1.502;2022-07-29T02:07:06;3.67;;;3.38;;
67503;SDS011;54351;49.108;1.502;2022-07-29T02:09:34;5.30;;;3.63;;
67503;SDS011;54351;49.108;1.502;2022-07-29T02:12:02;11.00;;;4.00;;
67503;SDS011;54351;49.108;1.502;2022-07-29T02:14:30;4.20;;;3.90;;
67503;SDS011;54351;49.108;1.502;2022-07-29T02:16:58;5.82;;;5.32;;
67503;SDS011;54351;49.108;1.502;2022-07-29T02:19:25;7.57;;;6.93;;
67503;SDS011;54351;49.108;1.502;2022-07-29T02:21:53;28.40;;;26.83;;
67503;SDS011;54351;49.108;1.502;2022-07-29T02:24:20;109.82;;;103.72;;
67503;SDS011;54351;49.108;1.502;2022-07-29T02:26:48;14.20;;;13.32;;
67503;SDS011;54351;49.108;1.502;2022-07-29T02:29:15;14.30;;;13.35;;
67503;SDS011;54351;49.108;1.502;2022-07-29T02:31:42;7.85;;;7.20;;
67503;SDS011;54351;49.108;1.502;2022-07-29T02:34:12;12.05;;;11.23;;
67503;SDS011;54351;49.108;1.502;2022-07-29T02:36:38;9.93;;;9.15;;
67503;SDS011;54351;49.108;1.502;2022-07-29T02:39:05;25.98;;;24.33;;
67503;SDS011;54351;49.108;1.502;2022-07-29T02:41:38;68.53;;;64.78;;
67503;SDS011;54351;49.108;1.502;2022-07-29T02:44:09;137.23;;;129.85;;
67503;SDS011;54351;49.108;1.502;2022-07-29T02:46:35;95.38;;;90.13;;
67503;SDS011;54351;49.108;1.502;2022-07-29T02:52:47;104.63;;;99.00;;
67503;SDS011;54351;49.108;1.502;2022-07-29T02:54:47;78.70;;;74.47;;
67503;SDS011;54351;49.108;1.502;2022-07-29T02:57:20;124.07;;;117.13;;
67503;SDS011;54351;49.108;1.502;2022-07-29T02:59:47;77.20;;;72.65;;
67503;SDS011;54351;49.108;1.502;2022-07-29T03:02:14;103.75;;;98.03;;
67503;SDS011;54351;49.108;1.502;2022-07-29T03:04:41;128.55;;;121.45;;
67503;SDS011;54351;49.108;1.502;2022-07-29T03:07:07;177.05;;;167.75;;
67503;SDS011;54351;49.108;1.502;2022-07-29T03:09:34;179.10;;;168.88;;
67503;SDS011;54351;49.108;1.502;2022-07-29T03:12:02;205.60;;;194.55;;
67503;SDS011;54351;49.108;1.502;2022-07-29T03:14:29;238.77;;;225.60;;
67503;SDS011;54351;49.108;1.502;2022-07-29T03:16:56;254.40;;;240.95;;
67503;SDS011;54351;49.108;1.502;2022-07-29T03:19:22;243.48;;;230.40;;
67503;SDS011;54351;49.108;1.502;2022-07-29T03:21:49;235.45;;;222.90;;
67503;SDS011;54351;49.108;1.502;2022-07-29T03:24:24;236.25;;;223.73;;
67503;SDS011;54351;49.108;1.502;2022-07-29T03:26:50;213.45;;;202.20;;
67503;SDS011;54351;49.108;1.502;2022-07-29T03:29:16;232.40;;;219.80;;
67503;SDS011;54351;49.108;1.502;2022-07-29T03:31:42;231.88;;;219.65;;
67503;SDS011;54351;49.108;1.502;2022-07-29T03:34:08;225.95;;;214.07;;
67503;SDS011;54351;49.108;1.502;2022-07-29T03:36:35;224.77;;;212.93;;
67503;SDS011;54351;49.108;1.502;2022-07-29T03:39:01;226.30;;;214.30;;
67503;SDS011;54351;49.108;1.502;2022-07-29T03:41:27;225.18;;;212.93;;
67503;SDS011;54351;49.108;1.502;2022-07-29T03:43:54;268.85;;;254.57;;
67503;SDS011;54351;49.108;1.502;2022-07-29T03:46:22;263.63;;;249.77;;
67503;SDS011;54351;49.108;1.502;2022-07-29T03:48:50;260.25;;;246.30;;
67503;SDS011;54351;49.108;1.502;2022-07-29T03:51:18;265.58;;;250.80;;
67503;SDS011;54351;49.108;1.502;2022-07-29T03:53:44;261.45;;;247.25;;
67503;SDS011;54351;49.108;1.502;2022-07-29T03:56:10;298.60;;;282.45;;
67503;SDS011;54351;49.108;1.502;2022-07-29T03:58:37;302.38;;;285.70;;
67503;SDS011;54351;49.108;1.502;2022-07-29T04:01:04;312.63;;;295.27;;
67503;SDS011;54351;49.108;1.502;2022-07-29T04:03:30;320.13;;;302.50;;
67503;SDS011;54351;49.108;1.502;2022-07-29T04:06:03;310.83;;;293.50;;
67503;SDS011;54351;49.108;1.502;2022-07-29T04:08:33;351.17;;;331.27;;
67503;SDS011;54351;49.108;1.502;2022-07-29T04:10:59;146.75;;;138.52;;
67503;SDS011;54351;49.108;1.502;2022-07-29T04:13:25;318.08;;;300.27;;
67503;SDS011;54351;49.108;1.502;2022-07-29T04:15:52;324.77;;;306.65;;
67503;SDS011;54351;49.108;1.502;2022-07-29T04:18:18;337.77;;;318.55;;
67503;SDS011;54351;49.108;1.502;2022-07-29T04:20:44;354.58;;;334.80;;
67503;SDS011;54351;49.108;1.502;2022-07-29T04:23:10;318.50;;;300.95;;
67503;SDS011;54351;49.108;1.502;2022-07-29T04:25:40;327.83;;;309.48;;
67503;SDS011;54351;49.108;1.502;2022-07-29T04:28:06;347.73;;;328.13;;
67503;SDS011;54351;49.108;1.502;2022-07-29T04:30:33;360.65;;;340.02;;
67503;SDS011;54351;49.108;1.502;2022-07-29T04:33:02;344.98;;;325.67;;
67503;SDS011;54351;49.108;1.502;2022-07-29T04:35:28;334.95;;;316.20;;
67503;SDS011;54351;49.108;1.502;2022-07-29T04:37:55;323.17;;;305.02;;
67503;SDS011;54351;49.108;1.502;2022-07-29T04:40:21;346.85;;;327.40;;
67503;SDS011;54351;49.108;1.502;2022-07-29T04:42:47;372.98;;;351.10;;
67503;SDS011;54351;49.108;1.502;2022-07-29T04:45:13;366.63;;;345.95;;
67503;SDS011;54351;49.108;1.502;2022-07-29T04:47:39;371.42;;;350.63;;
67503;SDS011;54351;49.108;1.502;2022-07-29T04:50:06;328.17;;;309.85;;
67503;SDS011;54351;49.108;1.502;2022-07-29T04:52:32;387.50;;;365.35;;
67503;SDS011;54351;49.108;1.502;2022-07-29T04:55:00;369.70;;;348.45;;
67503;SDS011;54351;49.108;1.502;2022-07-29T04:57:26;369.73;;;348.85;;
67503;SDS011;54351;49.108;1.502;2022-07-29T04:59:52;361.67;;;341.33;;
67503;SDS011;54351;49.108;1.502;2022-07-29T05:02:18;357.40;;;337.30;;
67503;SDS011;54351;49.108;1.502;2022-07-29T05:04:44;238.43;;;225.63;;
67503;SDS011;54351;49.108;1.502;2022-07-29T05:07:10;198.30;;;187.38;;
67503;SDS011;54351;49.108;1.502;2022-07-29T05:09:36;256.67;;;242.98;;
67503;SDS011;54351;49.108;1.502;2022-07-29T05:12:02;272.98;;;258.40;;
67503;SDS011;54351;49.108;1.502;2022-07-29T05:14:28;270.85;;;255.98;;
67503;SDS011;54351;49.108;1.502;2022-07-29T05:16:55;291.10;;;274.90;;
67503;SDS011;54351;49.108;1.502;2022-07-29T05:19:22;290.85;;;274.88;;
67503;SDS011;54351;49.108;1.502;2022-07-29T05:21:48;319.80;;;302.10;;
67503;SDS011;54351;49.108;1.502;2022-07-29T05:24:14;349.05;;;329.65;;
67503;SDS011;54351;49.108;1.502;2022-07-29T05:26:41;319.70;;;302.20;;
67503;SDS011;54351;49.108;1.502;2022-07-29T05:29:07;311.25;;;294.42;;
67503;SDS011;54351;49.108;1.502;2022-07-29T05:31:33;350.77;;;330.63;;
67503;SDS011;54351;49.108;1.502;2022-07-29T05:34:00;295.60;;;279.55;;
67503;SDS011;54351;49.108;1.502;2022-07-29T05:36:26;366.23;;;345.80;;
67503;SDS011;54351;49.108;1.502;2022-07-29T05:38:52;358.85;;;338.75;;
67503;SDS011;54351;49.108;1.502;2022-07-29T05:41:19;336.45;;;317.23;;
67503;SDS011;54351;49.108;1.502;2022-07-29T05:43:45;232.45;;;220.15;;
67503;SDS011;54351;49.108;1.502;2022-07-29T05:46:11;303.27;;;286.48;;
67503;SDS011;54351;49.108;1.502;2022-07-29T05:48:38;281.67;;;266.33;;
67503;SDS011;54351;49.108;1.502;2022-07-29T05:51:05;273.77;;;259.02;;
67503;SDS011;54351;49.108;1.502;2022-07-29T05:53:31;294.60;;;278.50;;
67503;SDS011;54351;49.108;1.502;2022-07-29T05:55:57;396.05;;;373.48;;
67503;SDS011;54351;49.108;1.502;2022-07-29T05:58:23;225.40;;;213.02;;
67503;SDS011;54351;49.108;1.502;2022-07-29T06:00:49;310.02;;;292.88;;
67503;SDS011;54351;49.108;1.502;2022-07-29T06:03:15;256.13;;;242.43;;
67503;SDS011;54351;49.108;1.502;2022-07-29T06:05:41;279.63;;;264.25;;
67503;SDS011;54351;49.108;1.502;2022-07-29T06:08:08;371.45;;;350.45;;
67503;SDS011;54351;49.108;1.502;2022-07-29T06:10:34;372.00;;;350.98;;
67503;SDS011;54351;49.108;1.502;2022-07-29T06:13:00;329.65;;;311.52;;
67503;SDS011;54351;49.108;1.502;2022-07-29T06:15:27;359.60;;;338.95;;
67503;SDS011;54351;49.108;1.502;2022-07-29T06:17:53;399.05;;;375.80;;
67503;SDS011;54351;49.108;1.502;2022-07-29T06:20:19;451.15;;;424.73;;
67503;SDS011;54351;49.108;1.502;2022-07-29T06:22:45;479.30;;;451.13;;
67503;SDS011;54351;49.108;1.502;2022-07-29T06:25:11;309.63;;;292.52;;
67503;SDS011;54351;49.108;1.502;2022-07-29T06:27:37;440.80;;;414.73;;
67503;SDS011;54351;49.108;1.502;2022-07-29T06:30:04;268.92;;;254.43;;
67503;SDS011;54351;49.108;1.502;2022-07-29T06:32:32;133.25;;;125.88;;
67503;SDS011;54351;49.108;1.502;2022-07-29T06:34:58;66.20;;;62.45;;
67503;SDS011;54351;49.108;1.502;2022-07-29T06:37:24;114.80;;;108.68;;
67503;SDS011;54351;49.108;1.502;2022-07-29T06:39:50;49.33;;;46.67;;
67503;SDS011;54351;49.108;1.502;2022-07-29T06:42:36;7.20;;;4.65;;
67503;SDS011;54351;49.108;1.502;2022-07-29T06:45:03;5.50;;;4.95;;
67503;SDS011;54351;49.108;1.502;2022-07-29T06:47:29;14.32;;;13.38;;
67503;SDS011;54351;49.108;1.502;2022-07-29T06:49:55;5.07;;;4.63;;
67503;SDS011;54351;49.108;1.502;2022-07-29T06:52:21;28.55;;;26.75;;
67503;SDS011;54351;49.108;1.502;2022-07-29T06:54:47;18.20;;;17.08;;
67503;SDS011;54351;49.108;1.502;2022-07-29T06:57:13;21.77;;;20.53;;
67503;SDS011;54351;49.108;1.502;2022-07-29T06:59:40;24.33;;;22.77;;
67503;SDS011;54351;49.108;1.502;2022-07-29T07:02:06;18.25;;;16.83;;
67503;SDS011;54351;49.108;1.502;2022-07-29T07:04:32;11.60;;;10.73;;
67503;SDS011;54351;49.108;1.502;2022-07-29T07:06:58;46.63;;;44.10;;
67503;SDS011;54351;49.108;1.502;2022-07-29T07:09:25;120.43;;;114.07;;
67503;SDS011;54351;49.108;1.502;2022-07-29T07:11:51;135.30;;;128.02;;
67503;SDS011;54351;49.108;1.502;2022-07-29T07:14:17;118.03;;;111.57;;
67503;SDS011;54351;49.108;1.502;2022-07-29T07:16:43;115.88;;;109.63;;
67503;SDS011;54351;49.108;1.502;2022-07-29T07:19:09;158.45;;;149.65;;
67503;SDS011;54351;49.108;1.502;2022-07-29T07:21:35;151.88;;;143.88;;
67503;SDS011;54351;49.108;1.502;2022-07-29T07:24:01;115.72;;;109.32;;
67503;SDS011;54351;49.108;1.502;2022-07-29T07:26:27;107.97;;;102.18;;
67503;SDS011;54351;49.108;1.502;2022-07-29T07:28:53;136.10;;;128.48;;
67503;SDS011;54351;49.108;1.502;2022-07-29T07:31:20;91.05;;;86.00;;
67503;SDS011;54351;49.108;1.502;2022-07-29T07:33:46;126.65;;;119.95;;
67503;SDS011;54351;49.108;1.502;2022-07-29T07:36:12;171.43;;;162.30;;
67503;SDS011;54351;49.108;1.502;2022-07-29T07:38:38;148.55;;;140.57;;
67503;SDS011;54351;49.108;1.502;2022-07-29T07:44:11;41.38;;;38.85;;
67503;SDS011;54351;49.108;1.502;2022-07-29T07:49:43;32.70;;;30.45;;
67503;SDS011;54351;49.108;1.502;2022-07-29T07:55:29;14.15;;;13.05;;
67503;SDS011;54351;49.108;1.502;2022-07-29T08:01:01;13.18;;;12.23;;
67503;SDS011;54351;49.108;1.502;2022-07-29T08:19:18;21.00;;;19.73;;
67503;SDS011;54351;49.108;1.502;2022-07-29T08:21:52;16.85;;;15.63;;
67503;SDS011;54351;49.108;1.502;2022-07-29T08:27:28;16.50;;;15.15;;
67503;SDS011;54351;49.108;1.502;2022-07-29T08:33:24;16.42;;;15.15;;
67503;SDS011;54351;49.108;1.502;2022-07-29T08:44:57;22.95;;;21.55;;
67503;SDS011;54351;49.108;1.502;2022-07-29T09:06:14;11.57;;;9.82;;
67503;SDS011;54351;49.108;1.502;2022-07-29T09:27:18;5.57;;;3.92;;
67503;SDS011;54351;49.108;1.502;2022-07-29T09:42:16;6.03;;;2.92;;
67503;SDS011;54351;49.108;1.502;2022-07-29T09:50:49;2.90;;;2.53;;
67503;SDS011;54351;49.108;1.502;2022-07-29T09:59:57;9.10;;;2.22;;
67503;SDS011;54351;49.108;1.502;2022-07-29T10:05:22;13.68;;;1.85;;
67503;SDS011;54351;49.108;1.502;2022-07-29T10:08:12;6.80;;;1.10;;
67503;SDS011;54351;49.108;1.502;2022-07-29T10:10:50;3.47;;;1.38;;
67503;SDS011;54351;49.108;1.502;2022-07-29T10:13:16;3.65;;;1.20;;
67503;SDS011;54351;49.108;1.502;2022-07-29T10:15:48;4.20;;;1.00;;
67503;SDS011;54351;49.108;1.502;2022-07-29T10:21:18;3.20;;;1.05;;
67503;SDS011;54351;49.108;1.502;2022-07-29T10:23:59;7.53;;;1.35;;
67503;SDS011;54351;49.108;1.502;2022-07-29T10:26:54;1.60;;;0.95;;
67503;SDS011;54351;49.108;1.502;2022-07-29T10:29:21;4.40;;;0.98;;
67503;SDS011;54351;49.108;1.502;2022-07-29T10:43:14;5.13;;;1.20;;
67503;SDS011;54351;49.108;1.502;2022-07-29T10:45:42;2.70;;;1.10;;
67503;SDS011;54351;49.108;1.502;2022-07-29T10:48:15;6.57;;;1.33;;
67503;SDS011;54351;49.108;1.502;2022-07-29T10:51:03;3.58;;;1.23;;
67503;SDS011;54351;49.108;1.502;2022-07-29T10:56:25;3.83;;;1.42;;
67503;SDS011;54351;49.108;1.502;2022-07-29T11:01:37;4.82;;;1.45;;
67503;SDS011;54351;49.108;1.502;2022-07-29T11:04:03;5.05;;;1.17;;
67503;SDS011;54351;49.108;1.502;2022-07-29T11:09:15;4.47;;;1.27;;
67503;SDS011;54351;49.108;1.502;2022-07-29T11:11:45;2.50;;;1.10;;
67503;SDS011;54351;49.108;1.502;2022-07-29T11:14:38;5.72;;;1.40;;
67503;SDS011;54351;49.108;1.502;2022-07-29T11:17:05;3.70;;;1.23;;
67503;SDS011;54351;49.108;1.502;2022-07-29T11:19:33;2.95;;;1.38;;
67503;SDS011;54351;49.108;1.502;2022-07-29T11:22:08;4.30;;;1.52;;
67503;SDS011;54351;49.108;1.502;2022-07-29T11:27:51;4.97;;;1.55;;
67503;SDS011;54351;49.108;1.502;2022-07-29T11:30:21;2.75;;;1.50;;
67503;SDS011;54351;49.108;1.502;2022-07-29T11:36:15;5.28;;;1.60;;
67503;SDS011;54351;49.108;1.502;2022-07-29T11:38:42;4.43;;;1.70;;
67503;SDS011;54351;49.108;1.502;2022-07-29T11:41:24;5.82;;;2.10;;
67503;SDS011;54351;49.108;1.502;2022-07-29T11:43:59;4.47;;;2.20;;
67503;SDS011;54351;49.108;1.502;2022-07-29T11:49:10;4.30;;;1.70;;
67503;SDS011;54351;49.108;1.502;2022-07-29T11:51:43;7.20;;;1.65;;
67503;SDS011;54351;49.108;1.502;2022-07-29T11:57:06;2.90;;;1.60;;
67503;SDS011;54351;49.108;1.502;2022-07-29T12:02:45;4.40;;;1.80;;
67503;SDS011;54351;49.108;1.502;2022-07-29T12:05:29;4.05;;;1.90;;
67503;SDS011;54351;49.108;1.502;2022-07-29T12:08:17;4.35;;;1.65;;
67503;SDS011;54351;49.108;1.502;2022-07-29T12:10:49;3.67;;;1.70;;
67503;SDS011;54351;49.108;1.502;2022-07-29T12:13:21;2.22;;;1.40;;
67503;SDS011;54351;49.108;1.502;2022-07-29T12:15:53;6.22;;;2.05;;
67503;SDS011;54351;49.108;1.502;2022-07-29T12:18:22;2.60;;;1.77;;
67503;SDS011;54351;49.108;1.502;2022-07-29T12:20:48;3.65;;;1.50;;
67503;SDS011;54351;49.108;1.502;2022-07-29T12:23:23;5.05;;;1.50;;
67503;SDS011;54351;49.108;1.502;2022-07-29T12:25:55;4.30;;;1.38;;
67503;SDS011;54351;49.108;1.502;2022-07-29T12:28:45;3.58;;;1.50;;
67503;SDS011;54351;49.108;1.502;2022-07-29T12:31:17;3.60;;;1.27;;
67503;SDS011;54351;49.108;1.502;2022-07-29T12:33:43;4.93;;;1.50;;
67503;SDS011;54351;49.108;1.502;2022-07-29T12:36:18;3.10;;;1.40;;
67503;SDS011;54351;49.108;1.502;2022-07-29T12:38:44;6.97;;;1.40;;
67503;SDS011;54351;49.108;1.502;2022-07-29T12:41:10;3.60;;;1.38;;
67503;SDS011;54351;49.108;1.502;2022-07-29T12:43:45;5.18;;;1.50;;
67503;SDS011;54351;49.108;1.502;2022-07-29T12:46:19;4.22;;;1.48;;
67503;SDS011;54351;49.108;1.502;2022-07-29T12:48:49;3.38;;;1.30;;
67503;SDS011;54351;49.108;1.502;2022-07-29T12:54:00;7.07;;;1.50;;
67503;SDS011;54351;49.108;1.502;2022-07-29T12:56:27;4.18;;;1.40;;
67503;SDS011;54351;49.108;1.502;2022-07-29T12:58:53;5.82;;;1.30;;
67503;SDS011;54351;49.108;1.502;2022-07-29T13:01:19;4.82;;;1.40;;
67503;SDS011;54351;49.108;1.502;2022-07-29T13:03:50;3.80;;;1.27;;
67503;SDS011;54351;49.108;1.502;2022-07-29T13:06:36;4.45;;;1.63;;
67503;SDS011;54351;49.108;1.502;2022-07-29T13:11:30;5.05;;;1.38;;
67503;SDS011;54351;49.108;1.502;2022-07-29T13:13:56;11.00;;;1.63;;
67503;SDS011;54351;49.108;1.502;2022-07-29T13:16:23;6.13;;;1.42;;
67503;SDS011;54351;49.108;1.502;2022-07-29T13:21:47;3.22;;;1.65;;
67503;SDS011;54351;49.108;1.502;2022-07-29T13:24:16;4.25;;;1.60;;
67503;SDS011;54351;49.108;1.502;2022-07-29T13:26:44;4.63;;;1.30;;
67503;SDS011;54351;49.108;1.502;2022-07-29T13:29:10;2.65;;;1.35;;
67503;SDS011;54351;49.108;1.502;2022-07-29T13:31:37;2.97;;;1.58;;
67503;SDS011;54351;49.108;1.502;2022-07-29T13:34:03;2.05;;;1.50;;
67503;SDS011;54351;49.108;1.502;2022-07-29T13:36:29;3.25;;;1.35;;
67503;SDS011;54351;49.108;1.502;2022-07-29T13:38:55;4.10;;;1.70;;
67503;SDS011;54351;49.108;1.502;2022-07-29T13:41:27;6.68;;;1.80;;
67503;SDS011;54351;49.108;1.502;2022-07-29T13:43:54;7.45;;;1.35;;
67503;SDS011;54351;49.108;1.502;2022-07-29T13:46:20;5.80;;;1.80;;
67503;SDS011;54351;49.108;1.502;2022-07-29T13:48:46;5.43;;;1.40;;
67503;SDS011;54351;49.108;1.502;2022-07-29T13:51:12;3.65;;;1.83;;
67503;SDS011;54351;49.108;1.502;2022-07-29T13:56:28;4.93;;;2.38;;
67503;SDS011;54351;49.108;1.502;2022-07-29T13:58:54;3.53;;;1.60;;
67503;SDS011;54351;49.108;1.502;2022-07-29T14:04:37;8.30;;;1.70;;
67503;SDS011;54351;49.108;1.502;2022-07-29T14:09:53;6.22;;;1.80;;
67503;SDS011;54351;49.108;1.502;2022-07-29T14:12:19;4.15;;;1.50;;
67503;SDS011;54351;49.108;1.502;2022-07-29T14:14:46;4.55;;;1.83;;
67503;SDS011;54351;49.108;1.502;2022-07-29T14:17:36;3.63;;;1.70;;
67503;SDS011;54351;49.108;1.502;2022-07-29T14:20:05;4.25;;;1.80;;
67503;SDS011;54351;49.108;1.502;2022-07-29T14:22:40;4.03;;;1.63;;
67503;SDS011;54351;49.108;1.502;2022-07-29T14:27:51;3.33;;;1.48;;
67503;SDS011;54351;49.108;1.502;2022-07-29T14:33:12;5.72;;;1.80;;
67503;SDS011;54351;49.108;1.502;2022-07-29T14:35:38;6.07;;;1.80;;
67503;SDS011;54351;49.108;1.502;2022-07-29T14:41:23;4.20;;;1.70;;
67503;SDS011;54351;49.108;1.502;2022-07-29T14:44:19;7.45;;;1.80;;
67503;SDS011;54351;49.108;1.502;2022-07-29T14:50:02;5.18;;;1.80;;
67503;SDS011;54351;49.108;1.502;2022-07-29T14:52:28;4.75;;;1.60;;
67503;SDS011;54351;49.108;1.502;2022-07-29T14:54:57;3.28;;;1.55;;
67503;SDS011;54351;49.108;1.502;2022-07-29T14:57:23;3.83;;;1.80;;
67503;SDS011;54351;49.108;1.502;2022-07-29T14:59:50;4.93;;;1.80;;
67503;SDS011;54351;49.108;1.502;2022-07-29T15:02:16;3.42;;;1.70;;
67503;SDS011;54351;49.108;1.502;2022-07-29T15:04:42;3.75;;;1.90;;
67503;SDS011;54351;49.108;1.502;2022-07-29T15:07:10;3.70;;;1.73;;
67503;SDS011;54351;49.108;1.502;2022-07-29T15:09:37;3.40;;;1.73;;
67503;SDS011;54351;49.108;1.502;2022-07-29T15:12:03;2.50;;;1.50;;
67503;SDS011;54351;49.108;1.502;2022-07-29T15:14:37;2.45;;;1.70;;
67503;SDS011;54351;49.108;1.502;2022-07-29T15:17:03;2.42;;;1.33;;
67503;SDS011;54351;49.108;1.502;2022-07-29T15:19:31;4.18;;;1.63;;
67503;SDS011;54351;49.108;1.502;2022-07-29T15:22:00;2.55;;;1.48;;
67503;SDS011;54351;49.108;1.502;2022-07-29T15:24:26;2.78;;;1.30;;
67503;SDS011;54351;49.108;1.502;2022-07-29T15:26:52;3.85;;;1.70;;
67503;SDS011;54351;49.108;1.502;2022-07-29T15:29:28;4.22;;;1.45;;
67503;SDS011;54351;49.108;1.502;2022-07-29T15:31:54;2.58;;;1.30;;
67503;SDS011;54351;49.108;1.502;2022-07-29T15:34:30;4.25;;;1.70;;
67503;SDS011;54351;49.108;1.502;2022-07-29T15:37:04;4.53;;;1.80;;
67503;SDS011;54351;49.108;1.502;2022-07-29T15:39:30;7.13;;;1.73;;
67503;SDS011;54351;49.108;1.502;2022-07-29T15:41:57;3.10;;;1.77;;
67503;SDS011;54351;49.108;1.502;2022-07-29T15:44:27;3.83;;;2.40;;
67503;SDS011;54351;49.108;1.502;2022-07-29T15:46:54;6.38;;;2.03;;
67503;SDS011;54351;49.108;1.502;2022-07-29T15:49:38;4.75;;;2.17;;
67503;SDS011;54351;49.108;1.502;2022-07-29T15:52:05;12.18;;;2.03;;
67503;SDS011;54351;49.108;1.502;2022-07-29T15:54:34;2.85;;;1.80;;
67503;SDS011;54351;49.108;1.502;2022-07-29T15:57:08;3.60;;;1.67;;
67503;SDS011;54351;49.108;1.502;2022-07-29T15:59:49;4.70;;;1.65;;
67503;SDS011;54351;49.108;1.502;2022-07-29T16:05:10;3.00;;;1.90;;
67503;SDS011;54351;49.108;1.502;2022-07-29T16:07:36;5.40;;;2.08;;
67503;SDS011;54351;49.108;1.502;2022-07-29T16:10:02;6.85;;;2.22;;
67503;SDS011;54351;49.108;1.502;2022-07-29T16:12:29;4.93;;;2.15;;
67503;SDS011;54351;49.108;1.502;2022-07-29T16:14:55;6.82;;;2.50;;
67503;SDS011;54351;49.108;1.502;2022-07-29T16:17:21;5.13;;;2.20;;
67503;SDS011;54351;49.108;1.502;2022-07-29T16:19:48;2.58;;;1.92;;
67503;SDS011;54351;49.108;1.502;2022-07-29T16:22:14;6.20;;;2.33;;
67503;SDS011;54351;49.108;1.502;2022-07-29T16:24:41;4.18;;;2.80;;
67503;SDS011;54351;49.108;1.502;2022-07-29T16:27:07;3.92;;;2.70;;
67503;SDS011;54351;49.108;1.502;2022-07-29T16:29:33;2.85;;;2.55;;
67503;SDS011;54351;49.108;1.502;2022-07-29T16:32:01;5.15;;;2.70;;
67503;SDS011;54351;49.108;1.502;2022-07-29T16:34:30;7.40;;;3.00;;
67503;SDS011;54351;49.108;1.502;2022-07-29T16:36:56;4.22;;;2.67;;
67503;SDS011;54351;49.108;1.502;2022-07-29T16:39:23;4.05;;;2.78;;
67503;SDS011;54351;49.108;1.502;2022-07-29T16:41:50;3.20;;;2.90;;
67503;SDS011;54351;49.108;1.502;2022-07-29T16:44:19;5.47;;;3.35;;
67503;SDS011;54351;49.108;1.502;2022-07-29T16:46:45;5.40;;;3.30;;
67503;SDS011;54351;49.108;1.502;2022-07-29T16:49:12;3.15;;;2.65;;
67503;SDS011;54351;49.108;1.502;2022-07-29T16:51:38;4.07;;;2.78;;
67503;SDS011;54351;49.108;1.502;2022-07-29T16:54:07;6.05;;;2.60;;
67503;SDS011;54351;49.108;1.502;2022-07-29T16:56:35;5.22;;;2.20;;
67503;SDS011;54351;49.108;1.502;2022-07-29T16:59:03;6.00;;;2.10;;
67503;SDS011;54351;49.108;1.502;2022-07-29T17:01:29;3.08;;;2.03;;
67503;SDS011;54351;49.108;1.502;2022-07-29T17:03:58;3.08;;;2.05;;
67503;SDS011;54351;49.108;1.502;2022-07-29T17:06:31;3.17;;;2.05;;
67503;SDS011;54351;49.108;1.502;2022-07-29T17:09:01;3.28;;;2.13;;
67503;SDS011;54351;49.108;1.502;2022-07-29T17:11:28;6.55;;;2.35;;
67503;SDS011;54351;49.108;1.502;2022-07-29T17:13:55;5.30;;;2.60;;
67503;SDS011;54351;49.108;1.502;2022-07-29T17:16:23;5.55;;;3.30;;
67503;SDS011;54351;49.108;1.502;2022-07-29T17:18:53;9.37;;;3.20;;
67503;SDS011;54351;49.108;1.502;2022-07-29T17:21:19;3.50;;;2.70;;
67503;SDS011;54351;49.108;1.502;2022-07-29T17:23:46;6.93;;;2.63;;
67503;SDS011;54351;49.108;1.502;2022-07-29T17:26:13;5.85;;;2.60;;
67503;SDS011;54351;49.108;1.502;2022-07-29T17:28:39;3.28;;;2.80;;
67503;SDS011;54351;49.108;1.502;2022-07-29T17:31:05;2.85;;;2.55;;
67503;SDS011;54351;49.108;1.502;2022-07-29T17:33:32;4.20;;;2.55;;
67503;SDS011;54351;49.108;1.502;2022-07-29T17:35:58;3.88;;;2.50;;
67503;SDS011;54351;49.108;1.502;2022-07-29T17:38:43;11.02;;;2.63;;
67503;SDS011;54351;49.108;1.502;2022-07-29T17:41:10;4.93;;;2.83;;
67503;SDS011;54351;49.108;1.502;2022-07-29T17:43:37;7.47;;;2.50;;
67503;SDS011;54351;49.108;1.502;2022-07-29T17:46:06;3.70;;;2.28;;
67503;SDS011;54351;49.108;1.502;2022-07-29T17:48:36;5.50;;;2.50;;